Página principal
METAR-TAF:

METAR-TAF

Aeroportos :

Ranong, Tailândia

latitude: 09-59N, longitude: 098-37E, altura: 7 m

Observação actual do tempo

O boletim foi feito há 32 minutos, às 06:00 UTC
Vento 7 kt de es-nordeste, variando entre nor-nordeste e sudeste
Temperatura 34°C
Humidade 53%
Pressão 1012 hPa
Visibilidade 10 km ou mais
Nuvens dispersasa uma altura de 3000 ft

METAR: VTSR 230600Z 07007KT 020V130 9999 SCT030 34/23 Q1012 NOSIG

Hora: 13:32 (06:32 UTC)

Previsão

O boletim foi feito há 1 hora e 32 minutos, às 05:00 UTC
Previsão válida de 23 às 06 UTC a 24 às 06 UTC
Vento 8 kt de este
Visibilidade 10 km ou mais
Nuvens dispersasa uma altura de 2000 ft
Tornando-se
de 23 às 14 UTC a 23 às 16 UTC
Vento kt de norte
Tornando-se
de 24 às 02 UTC a 24 às 04 UTC
Vento 6 kt de este

TAF: VTSR 230500Z 2306/2406 10008KT 9999 SCT020 BECMG 2314/2316 00000KT BECMG 2402/2404 10006KT

Observações e previsões do tempo de mais de 4000 aeroportos (mensagens METAR e TAF).

As estações disponíveis são os pontos amarelos e vermelhos sobre o mapa.

Mova o rato sobre o mapa para ver o nome da estação.

Depois clique no ponto para visualizar as observações e previsões meteorológicas.

Para alterar o mapa : clique nos botões verdes com uma cruz preta para aumentar o zoom; no botão verde com uma pitada de zoom; ou nas setas verdes para mapas adjacentes.


METAR-TAF: